Terminal Aerodrome Forecast
Issued by NWS Twin Cities, MN

Home | Current Version | Previous Version | Text Only | Print | Product List | Glossary On
Versions: 1 2 3 4 5 6 7 8 9 10 11 12 13 14 15 16 17 18 19 20 21
851
FTUS43 KMPX 140520
TAFSTC
TAF
KSTC 140520Z 1406/1506 11006KT P6SM OVC018
     FM141000 11005KT 4SM BR OVC007
     FM141200 10005KT 2SM BR OVC003
     FM141500 10004KT 4SM BR OVC007
     FM141800 07003KT P6SM OVC015
     FM150200 05002KT P6SM SCT250=

USA.gov is the U.S. government's official web portal to all federal, state and local government web resources and services.